Time;durP1;ratioP1;P1;durP2;ratioP2;P2;SDS_P1;SDS_P2;PMS_P1;PMS_P2;Temp;Humidity;BMP_temperature;BMP_pressure;BME280_temperature;BME280_humidity;BME280_pressure;Samples;Min_cycle;Max_cycle;Signal;HPM_P1;HPM_P2
2023/09/23 00:01:39;;;;;;;19.52;13.60;;;;;;;;;;4992336;28;20042;-49
2023/09/23 00:04:05;;;;;;;20.65;14.40;;;;;;;;;;5005868;28;20041;-54
2023/09/23 00:06:31;;;;;;;19.13;13.05;;;;;;;;;;5011547;28;20033;-53
2023/09/23 00:08:57;;;;;;;18.75;13.13;;;;;;;;;;4997391;28;20033;-55
2023/09/23 00:11:23;;;;;;;18.55;12.73;;;;;;;;;;5000053;28;20080;-52
2023/09/23 00:13:49;;;;;;;19.77;13.20;;;;;;;;;;5006174;28;20536;-51
2023/09/23 00:16:15;;;;;;;19.85;12.52;;;;;;;;;;5003652;28;20073;-47
2023/09/23 00:18:43;;;;;;;16.75;13.18;;;;;;;;;;5006349;28;20037;-49
2023/09/23 00:21:09;;;;;;;20.65;12.38;;;;;;;;;;5030222;28;20044;-51
2023/09/23 00:23:35;;;;;;;20.70;11.98;;;;;;;;;;5029303;28;20508;-54
2023/09/23 00:26:02;;;;;;;18.33;10.50;;;;;;;;;;5027499;28;20444;-54
2023/09/23 00:28:30;;;;;;;15.13;9.85;;;;;;;;;;5025678;28;20065;-53
2023/09/23 00:31:02;;;;;;;16.02;9.10;;;;;;;;;;5035133;28;20510;-52
2023/09/23 00:33:30;;;;;;;13.00;8.18;;;;;;;;;;5024757;28;20401;-53
2023/09/23 00:35:56;;;;;;;11.65;6.97;;;;;;;;;;5021498;28;20030;-54
2023/09/23 00:38:22;;;;;;;10.02;6.60;;;;;;;;;;5016266;28;20042;-53
2023/09/23 00:40:48;;;;;;;8.75;6.28;;;;;;;;;;5017763;28;20040;-60
2023/09/23 00:43:15;;;;;;;8.50;5.40;;;;;;;;;;5019572;28;20037;-55
2023/09/23 00:45:48;;;;;;;8.73;5.82;;;;;;;;;;5027569;28;20072;-55
2023/09/23 00:48:20;;;;;;;12.20;7.40;;;;;;;;;;5022539;28;20062;-53
2023/09/23 00:50:47;;;;;;;14.98;10.32;;;;;;;;;;5039222;28;20481;-55
2023/09/23 00:53:14;;;;;;;27.45;18.50;;;;;;;;;;5034050;28;20500;-54
2023/09/23 00:55:47;;;;;;;44.50;30.25;;;;;;;;;;5033997;28;20028;-53
2023/09/23 00:58:20;;;;;;;57.00;35.67;;;;;;;;;;5023398;28;20091;-55
2023/09/23 01:00:46;;;;;;;62.58;38.83;;;;;;;;;;5029043;28;20481;-55
2023/09/23 01:03:12;;;;;;;62.65;38.25;;;;;;;;;;5018072;28;20088;-53
2023/09/23 01:05:41;;;;;;;60.90;38.22;;;;;;;;;;5038120;28;20477;-55
2023/09/23 01:08:11;;;;;;;59.90;36.60;;;;;;;;;;5027222;28;20069;-55
2023/09/23 01:10:37;;;;;;;58.47;34.80;;;;;;;;;;5042541;28;20052;-53
2023/09/23 01:13:06;;;;;;;49.58;30.40;;;;;;;;;;5017854;28;20030;-54
2023/09/23 01:15:32;;;;;;;45.55;28.35;;;;;;;;;;5006373;28;20065;-52
2023/09/23 01:17:58;;;;;;;48.83;27.95;;;;;;;;;;5013503;28;20496;-52
2023/09/23 01:20:25;;;;;;;42.53;26.83;;;;;;;;;;5010385;28;20117;-55
2023/09/23 01:22:52;;;;;;;42.78;25.27;;;;;;;;;;5000547;28;20497;-53
2023/09/23 01:25:19;;;;;;;38.28;24.27;;;;;;;;;;4998760;28;20045;-54
2023/09/23 01:27:45;;;;;;;45.30;24.90;;;;;;;;;;5027582;28;20037;-52
2023/09/23 01:30:12;;;;;;;46.20;25.05;;;;;;;;;;5007417;28;20490;-55
2023/09/23 01:32:49;;;;;;;41.05;23.52;;;;;;;;;;5009953;28;20516;-48
2023/09/23 01:35:20;;;;;;;42.17;23.90;;;;;;;;;;5004570;28;20046;-50
2023/09/23 01:37:46;;;;;;;39.78;23.27;;;;;;;;;;5022139;28;20485;-50
2023/09/23 01:40:18;;;;;;;36.35;22.88;;;;;;;;;;5034894;28;20078;-46
2023/09/23 01:42:46;;;;;;;38.38;22.05;;;;;;;;;;5033044;28;20496;-48
2023/09/23 01:45:13;;;;;;;33.47;20.83;;;;;;;;;;5030210;28;20502;-51
2023/09/23 01:47:39;;;;;;;34.40;20.67;;;;;;;;;;4999401;28;20537;-47
2023/09/23 01:50:06;;;;;;;33.85;20.58;;;;;;;;;;5006570;28;20048;-51
2023/09/23 01:52:32;;;;;;;31.83;19.58;;;;;;;;;;5018384;28;20048;-48
2023/09/23 01:54:58;;;;;;;28.88;18.25;;;;;;;;;;5032719;28;20041;-52
2023/09/23 01:57:24;;;;;;;30.42;17.98;;;;;;;;;;5034387;28;20132;-49
2023/09/23 01:59:50;;;;;;;27.80;17.60;;;;;;;;;;5027360;28;20520;-50
2023/09/23 02:02:17;;;;;;;31.02;17.13;;;;;;;;;;5033703;28;20062;-49
2023/09/23 02:04:43;;;;;;;26.90;17.13;;;;;;;;;;5032631;28;20367;-47
2023/09/23 02:07:10;;;;;;;31.08;17.13;;;;;;;;;;5032788;28;20044;-51
2023/09/23 02:09:40;;;;;;;26.85;16.90;;;;;;;;;;5038501;28;20388;-46
2023/09/23 02:12:06;;;;;;;25.88;16.02;;;;;;;;;;5020865;28;20029;-51
2023/09/23 02:14:32;;;;;;;21.90;14.73;;;;;;;;;;5024414;28;20087;-48
2023/09/23 02:16:58;;;;;;;23.98;15.18;;;;;;;;;;5025968;28;20064;-50
2023/09/23 02:19:25;;;;;;;23.20;14.52;;;;;;;;;;5025869;28;20034;-49
2023/09/23 02:21:51;;;;;;;25.35;15.13;;;;;;;;;;5026220;28;20033;-49
2023/09/23 02:24:18;;;;;;;21.00;13.27;;;;;;;;;;5025346;28;20055;-52
2023/09/23 02:26:48;;;;;;;24.35;13.95;;;;;;;;;;5028654;28;20037;-52
2023/09/23 02:29:15;;;;;;;21.17;13.18;;;;;;;;;;5024486;28;20041;-49
2023/09/23 02:31:49;;;;;;;19.92;12.38;;;;;;;;;;5026390;28;20037;-46
2023/09/23 02:34:16;;;;;;;17.95;12.38;;;;;;;;;;5025178;28;20033;-48
2023/09/23 02:36:43;;;;;;;20.98;11.35;;;;;;;;;;5022248;28;20171;-51
2023/09/23 02:39:15;;;;;;;18.30;11.88;;;;;;;;;;5015182;28;20033;-50
2023/09/23 02:41:42;;;;;;;23.67;11.20;;;;;;;;;;5007115;28;20567;-49
2023/09/23 02:44:08;;;;;;;20.10;10.10;;;;;;;;;;5002050;28;20501;-49
2023/09/23 02:46:35;;;;;;;17.25;10.68;;;;;;;;;;5015185;28;20536;-47
2023/09/23 02:49:01;;;;;;;15.20;9.93;;;;;;;;;;5024458;28;20930;-49
2023/09/23 02:51:27;;;;;;;14.68;9.20;;;;;;;;;;5025497;28;20033;-48
2023/09/23 02:53:53;;;;;;;16.30;8.55;;;;;;;;;;5026973;28;20505;-47
2023/09/23 02:56:19;;;;;;;16.10;8.77;;;;;;;;;;5022632;28;20038;-49
2023/09/23 02:58:45;;;;;;;17.63;8.57;;;;;;;;;;5024110;28;20393;-48
2023/09/23 03:01:14;;;;;;;17.77;8.75;;;;;;;;;;5024058;28;20442;-50
2023/09/23 03:03:40;;;;;;;15.50;7.78;;;;;;;;;;5021368;28;20042;-51
2023/09/23 03:06:10;;;;;;;13.02;7.90;;;;;;;;;;5031973;28;20033;-49
2023/09/23 03:08:37;;;;;;;11.90;7.95;;;;;;;;;;5028432;28;20103;-51
2023/09/23 03:11:08;;;;;;;20.58;7.68;;;;;;;;;;5025552;28;20087;-50
2023/09/23 03:13:36;;;;;;;14.88;6.95;;;;;;;;;;5031667;28;20083;-49
2023/09/23 03:16:10;;;;;;;10.45;6.85;;;;;;;;;;5023979;28;20536;-50
2023/09/23 03:18:54;;;;;;;;;;;;;;;;;;5025558;28;20048;-49
2023/09/23 03:21:21;;;;;;;11.85;5.63;;;;;;;;;;5021712;28;19963;-49
2023/09/23 03:23:47;;;;;;;10.32;4.95;;;;;;;;;;5025970;28;20033;-51
2023/09/23 03:26:14;;;;;;;10.90;5.07;;;;;;;;;;5027829;28;20080;-50
2023/09/23 03:28:40;;;;;;;9.85;4.18;;;;;;;;;;5025352;28;20037;-51
2023/09/23 03:31:10;;;;;;;9.82;4.50;;;;;;;;;;5023933;28;20092;-49
2023/09/23 03:33:37;;;;;;;10.93;3.97;;;;;;;;;;5024976;28;20029;-50
2023/09/23 03:36:03;;;;;;;10.23;4.05;;;;;;;;;;5027420;28;20030;-49
2023/09/23 03:38:29;;;;;;;13.13;3.45;;;;;;;;;;5023438;28;20503;-49
2023/09/23 03:40:59;;;;;;;10.75;3.40;;;;;;;;;;5022691;28;20597;-51
2023/09/23 03:43:25;;;;;;;10.13;3.15;;;;;;;;;;5022551;28;20139;-49
2023/09/23 03:45:52;;;;;;;12.68;3.15;;;;;;;;;;5024927;28;20041;-48
2023/09/23 03:48:18;;;;;;;10.02;3.10;;;;;;;;;;5024557;28;20630;-49
2023/09/23 03:50:44;;;;;;;7.97;2.45;;;;;;;;;;5025436;28;20060;-48
2023/09/23 03:53:11;;;;;;;5.35;2.80;;;;;;;;;;5025097;28;20119;-47
2023/09/23 03:55:38;;;;;;;8.05;2.80;;;;;;;;;;5026350;28;20029;-49
2023/09/23 03:58:04;;;;;;;5.72;2.72;;;;;;;;;;5020596;28;20050;-47
2023/09/23 04:00:33;;;;;;;8.82;3.00;;;;;;;;;;5022503;28;20584;-49
2023/09/23 04:03:00;;;;;;;12.15;2.85;;;;;;;;;;5019507;28;20351;-47
2023/09/23 04:05:26;;;;;;;10.35;3.13;;;;;;;;;;5023063;28;20044;-49
2023/09/23 04:07:53;;;;;;;7.85;2.65;;;;;;;;;;5027352;28;20455;-49
2023/09/23 04:10:23;;;;;;;8.00;2.65;;;;;;;;;;5022604;28;20117;-48
2023/09/23 04:12:49;;;;;;;6.70;2.50;;;;;;;;;;5022749;28;20033;-49
2023/09/23 04:15:15;;;;;;;9.27;2.50;;;;;;;;;;5024126;28;20461;-51
2023/09/23 04:17:41;;;;;;;13.13;2.60;;;;;;;;;;5026323;28;20038;-50
2023/09/23 04:20:13;;;;;;;6.07;2.50;;;;;;;;;;5025328;28;20557;-49
2023/09/23 04:22:41;;;;;;;10.43;3.00;;;;;;;;;;5020196;28;20038;-47
2023/09/23 04:25:08;;;;;;;11.23;3.63;;;;;;;;;;5021642;28;20038;-49
2023/09/23 04:27:36;;;;;;;6.75;2.90;;;;;;;;;;5026818;28;20324;-49
2023/09/23 04:30:04;;;;;;;6.88;3.00;;;;;;;;;;5027162;28;20493;-51
2023/09/23 04:32:30;;;;;;;11.02;3.00;;;;;;;;;;5032256;28;20469;-50
2023/09/23 04:34:56;;;;;;;9.65;2.90;;;;;;;;;;5022931;28;20049;-48
2023/09/23 04:37:23;;;;;;;7.88;2.35;;;;;;;;;;5023708;28;20053;-49
2023/09/23 04:39:50;;;;;;;5.75;2.50;;;;;;;;;;5007701;28;20536;-46
2023/09/23 04:42:17;;;;;;;10.07;2.67;;;;;;;;;;5035165;28;20327;-47
2023/09/23 04:44:43;;;;;;;11.18;2.50;;;;;;;;;;5011668;28;20061;-50
2023/09/23 04:47:09;;;;;;;7.78;2.35;;;;;;;;;;5004508;28;20545;-50
2023/09/23 04:49:37;;;;;;;7.28;2.53;;;;;;;;;;5005381;28;20033;-47
2023/09/23 04:52:04;;;;;;;6.05;2.50;;;;;;;;;;5005516;28;20494;-49
2023/09/23 04:54:30;;;;;;;13.27;2.95;;;;;;;;;;5002494;28;20485;-46
2023/09/23 04:56:56;;;;;;;8.77;3.00;;;;;;;;;;4993439;28;20068;-49
2023/09/23 04:59:22;;;;;;;9.05;2.65;;;;;;;;;;5007153;28;20405;-48
2023/09/23 05:01:48;;;;;;;5.70;2.72;;;;;;;;;;5009557;28;20120;-50
2023/09/23 05:04:13;;;;;;;8.95;2.75;;;;;;;;;;5009466;28;20494;-48
2023/09/23 05:06:39;;;;;;;10.35;2.80;;;;;;;;;;5013808;28;20050;-47
2023/09/23 05:09:07;;;;;;;9.75;2.75;;;;;;;;;;5004810;28;20038;-51
2023/09/23 05:11:34;;;;;;;5.70;2.75;;;;;;;;;;5007309;28;20132;-46
2023/09/23 05:14:00;;;;;;;5.15;2.97;;;;;;;;;;5008776;28;20161;-48
2023/09/23 05:16:26;;;;;;;14.88;3.05;;;;;;;;;;5006009;28;20227;-48
2023/09/23 05:18:53;;;;;;;8.48;2.92;;;;;;;;;;5002784;28;20099;-50
2023/09/23 05:21:19;;;;;;;9.20;2.90;;;;;;;;;;5006964;28;20056;-46
2023/09/23 05:23:48;;;;;;;10.02;3.10;;;;;;;;;;5001882;28;20034;-51
2023/09/23 05:26:16;;;;;;;8.85;3.13;;;;;;;;;;5013629;28;20037;-49
2023/09/23 05:28:42;;;;;;;9.80;3.20;;;;;;;;;;5038160;28;20051;-50
2023/09/23 05:31:08;;;;;;;7.50;3.00;;;;;;;;;;5031816;28;20056;-47
2023/09/23 05:33:34;;;;;;;6.13;2.72;;;;;;;;;;5041874;28;20014;-51
2023/09/23 05:36:00;;;;;;;10.55;3.13;;;;;;;;;;5023431;28;20219;-51
2023/09/23 05:38:26;;;;;;;9.13;3.10;;;;;;;;;;5018028;28;20057;-48
2023/09/23 05:40:52;;;;;;;8.65;3.15;;;;;;;;;;5026991;28;20083;-52
2023/09/23 05:43:18;;;;;;;7.90;3.13;;;;;;;;;;5022250;28;20064;-51
2023/09/23 05:45:44;;;;;;;11.88;3.50;;;;;;;;;;5034194;28;20516;-49
2023/09/23 05:48:11;;;;;;;11.77;3.63;;;;;;;;;;5027728;28;20488;-50
2023/09/23 05:50:37;;;;;;;7.85;3.67;;;;;;;;;;5025893;28;20026;-49
2023/09/23 05:53:03;;;;;;;13.98;3.40;;;;;;;;;;5024515;28;20041;-47
2023/09/23 05:55:31;;;;;;;8.68;3.17;;;;;;;;;;5032524;28;20037;-49
2023/09/23 05:57:57;;;;;;;10.75;3.30;;;;;;;;;;5014209;28;20036;-52
2023/09/23 06:00:23;;;;;;;11.27;3.83;;;;;;;;;;5001145;28;20666;-50
2023/09/23 06:02:49;;;;;;;13.27;3.67;;;;;;;;;;4988637;28;20379;-49
2023/09/23 06:05:15;;;;;;;6.05;3.22;;;;;;;;;;5000924;28;20110;-51
2023/09/23 06:07:41;;;;;;;15.63;3.70;;;;;;;;;;5006746;28;20515;-52
2023/09/23 06:10:10;;;;;;;11.55;3.72;;;;;;;;;;5031828;28;20642;-53
2023/09/23 06:12:37;;;;;;;9.93;3.95;;;;;;;;;;4997546;28;20489;-48
2023/09/23 06:15:05;;;;;;;12.27;3.83;;;;;;;;;;4996561;28;20089;-54
2023/09/23 06:17:32;;;;;;;10.18;4.30;;;;;;;;;;5009752;28;20030;-47
2023/09/23 06:19:58;;;;;;;13.25;4.30;;;;;;;;;;4996864;28;20529;-48
2023/09/23 06:22:25;;;;;;;8.50;3.80;;;;;;;;;;5009738;28;20057;-49
2023/09/23 06:24:51;;;;;;;10.75;4.13;;;;;;;;;;5037200;28;20525;-50
2023/09/23 06:27:17;;;;;;;14.45;4.15;;;;;;;;;;5016814;28;20041;-51
2023/09/23 06:29:44;;;;;;;15.30;4.45;;;;;;;;;;5019140;28;20064;-47
2023/09/23 06:32:10;;;;;;;11.77;4.18;;;;;;;;;;5032084;28;20040;-49
2023/09/23 06:34:36;;;;;;;10.25;4.20;;;;;;;;;;5013584;28;20037;-46
2023/09/23 06:37:02;;;;;;;8.95;3.90;;;;;;;;;;5012002;28;20152;-45
2023/09/23 06:39:28;;;;;;;12.38;4.00;;;;;;;;;;4999254;28;20421;-47
2023/09/23 06:41:54;;;;;;;9.75;4.00;;;;;;;;;;5000090;28;20062;-49
2023/09/23 06:44:20;;;;;;;14.65;4.43;;;;;;;;;;5016326;28;20358;-45
2023/09/23 06:46:47;;;;;;;8.50;3.40;;;;;;;;;;4998712;28;20405;-45
2023/09/23 06:49:13;;;;;;;12.65;3.80;;;;;;;;;;5012771;28;20482;-46
2023/09/23 06:51:39;;;;;;;17.35;4.30;;;;;;;;;;5015316;28;20091;-44
2023/09/23 06:54:05;;;;;;;13.57;4.28;;;;;;;;;;5007163;28;20042;-44
2023/09/23 06:56:31;;;;;;;10.63;4.00;;;;;;;;;;5002749;28;20034;-43
2023/09/23 06:58:57;;;;;;;8.52;3.70;;;;;;;;;;5005829;28;20041;-48
2023/09/23 07:01:23;;;;;;;8.95;3.80;;;;;;;;;;5005589;28;20393;-44
2023/09/23 07:03:49;;;;;;;11.32;3.78;;;;;;;;;;5003352;28;20116;-45
2023/09/23 07:06:15;;;;;;;11.43;3.83;;;;;;;;;;5003660;28;20129;-47
2023/09/23 07:08:41;;;;;;;12.43;4.18;;;;;;;;;;5002953;28;20447;-49
2023/09/23 07:11:16;;;;;;;10.27;4.22;;;;;;;;;;4993809;28;20068;-48
2023/09/23 07:13:42;;;;;;;18.13;4.53;;;;;;;;;;5008053;28;20229;-47
2023/09/23 07:16:14;;;;;;;10.75;4.28;;;;;;;;;;5010018;28;20583;-48
2023/09/23 07:18:41;;;;;;;13.30;4.03;;;;;;;;;;5006363;28;20113;-49
2023/09/23 07:21:07;;;;;;;13.05;4.00;;;;;;;;;;5003984;28;20057;-48
2023/09/23 07:23:33;;;;;;;16.67;6.32;;;;;;;;;;5005894;28;20038;-50
2023/09/23 07:26:00;;;;;;;10.00;3.95;;;;;;;;;;5003627;28;20041;-50
2023/09/23 07:28:27;;;;;;;15.32;4.47;;;;;;;;;;5003968;28;20081;-48
2023/09/23 07:30:53;;;;;;;10.57;4.35;;;;;;;;;;5004978;28;20116;-50
2023/09/23 07:33:19;;;;;;;11.38;4.45;;;;;;;;;;5005004;28;21083;-50
2023/09/23 07:35:45;;;;;;;10.10;4.07;;;;;;;;;;5006627;28;20042;-51
2023/09/23 07:38:12;;;;;;;10.35;4.22;;;;;;;;;;5005952;28;20434;-51
2023/09/23 07:40:39;;;;;;;11.60;3.80;;;;;;;;;;5005596;28;20038;-50
2023/09/23 07:43:05;;;;;;;11.95;3.80;;;;;;;;;;5003159;28;20095;-48
2023/09/23 07:45:31;;;;;;;13.02;4.28;;;;;;;;;;5010877;28;20087;-51
2023/09/23 07:47:57;;;;;;;10.27;3.95;;;;;;;;;;5007897;28;20452;-52
2023/09/23 07:50:23;;;;;;;11.02;3.90;;;;;;;;;;5009347;28;20087;-50
2023/09/23 07:52:49;;;;;;;12.73;4.03;;;;;;;;;;5004108;28;20045;-50
2023/09/23 07:55:15;;;;;;;8.63;4.20;;;;;;;;;;5009823;28;20120;-50
2023/09/23 07:57:41;;;;;;;12.27;4.28;;;;;;;;;;5002548;28;20041;-49
2023/09/23 08:00:08;;;;;;;14.13;4.80;;;;;;;;;;5002480;28;20552;-47
2023/09/23 08:02:35;;;;;;;14.45;4.60;;;;;;;;;;5004327;28;20390;-47
2023/09/23 08:05:03;;;;;;;8.90;4.35;;;;;;;;;;5001034;28;20033;-47
2023/09/23 08:07:29;;;;;;;12.50;4.85;;;;;;;;;;5025561;28;20409;-51
2023/09/23 08:09:55;;;;;;;11.60;4.10;;;;;;;;;;5016693;28;20034;-47
2023/09/23 08:12:21;;;;;;;13.20;4.50;;;;;;;;;;5017175;28;20075;-52
2023/09/23 08:14:47;;;;;;;15.98;4.18;;;;;;;;;;5027763;28;20194;-51
2023/09/23 08:17:14;;;;;;;10.02;3.70;;;;;;;;;;5024415;28;20048;-52
2023/09/23 08:19:40;;;;;;;11.52;4.75;;;;;;;;;;5023961;28;20060;-50
2023/09/23 08:22:06;;;;;;;11.38;4.63;;;;;;;;;;5022469;28;20128;-50
2023/09/23 08:24:32;;;;;;;12.15;4.88;;;;;;;;;;5027872;28;20033;-52
2023/09/23 08:26:59;;;;;;;12.18;5.00;;;;;;;;;;5030967;28;20036;-50
2023/09/23 08:29:25;;;;;;;11.73;5.20;;;;;;;;;;5028665;28;20134;-51
2023/09/23 08:31:51;;;;;;;14.00;5.40;;;;;;;;;;5030419;28;20084;-49
2023/09/23 08:34:17;;;;;;;11.55;4.90;;;;;;;;;;5026004;28;20129;-50
2023/09/23 08:36:43;;;;;;;11.88;5.50;;;;;;;;;;5010473;28;20188;-53
2023/09/23 08:39:09;;;;;;;13.68;5.05;;;;;;;;;;5005111;28;20069;-49
2023/09/23 08:41:36;;;;;;;12.93;6.00;;;;;;;;;;4998635;28;20026;-52
2023/09/23 08:44:05;;;;;;;13.27;5.60;;;;;;;;;;5002368;28;20084;-53
2023/09/23 08:46:32;;;;;;;11.35;5.78;;;;;;;;;;5001125;28;20129;-52
2023/09/23 08:48:59;;;;;;;11.95;5.38;;;;;;;;;;5001721;28;20434;-52
2023/09/23 08:51:27;;;;;;;10.95;5.30;;;;;;;;;;5041415;28;20041;-52
2023/09/23 08:53:54;;;;;;;16.48;6.32;;;;;;;;;;5038078;28;20037;-49
2023/09/23 08:56:21;;;;;;;13.18;6.45;;;;;;;;;;5030360;28;20430;-51
2023/09/23 08:58:49;;;;;;;12.73;7.18;;;;;;;;;;5033424;28;20087;-53
2023/09/23 09:01:19;;;;;;;22.92;13.60;;;;;;;;;;5025115;28;20029;-47
2023/09/23 09:03:45;;;;;;;11.10;6.22;;;;;;;;;;5027799;28;20033;-50
2023/09/23 09:06:17;;;;;;;12.25;6.65;;;;;;;;;;5021149;28;20037;-48
2023/09/23 09:08:43;;;;;;;10.50;6.10;;;;;;;;;;5032137;28;20485;-52
2023/09/23 09:11:09;;;;;;;13.32;6.53;;;;;;;;;;5030071;28;20040;-52
2023/09/23 09:13:36;;;;;;;16.48;6.55;;;;;;;;;;5028522;28;20430;-54
2023/09/23 09:16:06;;;;;;;11.82;6.03;;;;;;;;;;5030676;28;20396;-52
2023/09/23 09:18:32;;;;;;;8.48;5.10;;;;;;;;;;5023934;28;20124;-55
2023/09/23 09:20:58;;;;;;;14.52;5.93;;;;;;;;;;5026597;28;20109;-51
2023/09/23 09:23:32;;;;;;;22.27;10.55;;;;;;;;;;5032429;28;20498;-54
2023/09/23 09:25:59;;;;;;;15.20;5.22;;;;;;;;;;5033090;28;20029;-52
2023/09/23 09:28:25;;;;;;;9.15;4.60;;;;;;;;;;5028682;28;21159;-55
2023/09/23 09:30:58;;;;;;;7.80;4.82;;;;;;;;;;5040746;28;20029;-52
2023/09/23 09:33:26;;;;;;;10.57;4.50;;;;;;;;;;5047103;28;20530;-53
2023/09/23 09:35:54;;;;;;;13.07;5.10;;;;;;;;;;5046692;28;20037;-56
2023/09/23 09:38:22;;;;;;;8.77;4.50;;;;;;;;;;5027133;28;20527;-52
2023/09/23 09:40:49;;;;;;;9.35;4.82;;;;;;;;;;5026780;28;20031;-55
2023/09/23 09:43:16;;;;;;;16.38;5.25;;;;;;;;;;5026639;28;20034;-53
2023/09/23 09:45:44;;;;;;;11.50;5.13;;;;;;;;;;5025524;28;20041;-54
2023/09/23 09:48:10;;;;;;;13.63;5.88;;;;;;;;;;5026743;28;20041;-54
2023/09/23 09:50:39;;;;;;;13.98;5.13;;;;;;;;;;5036010;28;20067;-53
2023/09/23 09:53:06;;;;;;;7.90;4.60;;;;;;;;;;5030512;28;20452;-53
2023/09/23 09:55:33;;;;;;;17.20;5.72;;;;;;;;;;5027807;28;20378;-52
2023/09/23 09:58:01;;;;;;;9.27;4.38;;;;;;;;;;5042034;28;20455;-53
2023/09/23 10:00:35;;;;;;;12.57;4.72;;;;;;;;;;5034517;28;20044;-50
2023/09/23 10:03:05;;;;;;;13.75;5.85;;;;;;;;;;5022703;28;20034;-51
2023/09/23 10:05:32;;;;;;;13.38;6.53;;;;;;;;;;5027696;28;20029;-55
2023/09/23 10:07:59;;;;;;;11.93;4.25;;;;;;;;;;5027870;28;20079;-53
2023/09/23 10:10:32;;;;;;;11.10;4.50;;;;;;;;;;5034261;28;20069;-54
2023/09/23 10:13:06;;;;;;;12.05;4.32;;;;;;;;;;5025023;28;20437;-53
2023/09/23 10:15:36;;;;;;;13.30;4.05;;;;;;;;;;5023800;28;20477;-53
2023/09/23 10:18:03;;;;;;;11.43;3.72;;;;;;;;;;5025087;28;20493;-52
2023/09/23 10:20:33;;;;;;;12.80;3.78;;;;;;;;;;5026261;28;20117;-54
2023/09/23 10:23:00;;;;;;;7.80;3.10;;;;;;;;;;5027259;28;20345;-54
2023/09/23 10:25:36;;;;;;;11.27;3.75;;;;;;;;;;5024232;28;20037;-52
2023/09/23 10:28:04;;;;;;;12.07;3.67;;;;;;;;;;5024063;28;20029;-55
2023/09/23 10:30:32;;;;;;;88.45;64.00;;;;;;;;;;5041436;28;20513;-54
2023/09/23 10:32:58;;;;;;;7.30;3.20;;;;;;;;;;5026577;28;20026;-53
2023/09/23 10:35:26;;;;;;;10.85;3.10;;;;;;;;;;5026089;28;20030;-54
2023/09/23 10:37:52;;;;;;;11.75;2.80;;;;;;;;;;5023659;28;20520;-54
2023/09/23 10:40:18;;;;;;;7.82;2.85;;;;;;;;;;4982234;28;20124;-53
2023/09/23 10:42:46;;;;;;;6.75;2.83;;;;;;;;;;5002612;28;20080;-52
2023/09/23 10:45:14;;;;;;;11.57;2.88;;;;;;;;;;4991686;28;20049;-51
2023/09/23 10:47:40;;;;;;;9.15;2.67;;;;;;;;;;5006017;28;20454;-52
2023/09/23 10:50:07;;;;;;;9.23;2.53;;;;;;;;;;5002673;28;20501;-53
2023/09/23 10:52:33;;;;;;;8.52;2.80;;;;;;;;;;5012607;28;20044;-53
2023/09/23 10:54:59;;;;;;;10.82;2.92;;;;;;;;;;5022858;28;20446;-54
2023/09/23 10:57:26;;;;;;;7.53;2.47;;;;;;;;;;5026545;28;20044;-54
2023/09/23 10:59:52;;;;;;;8.68;2.67;;;;;;;;;;5026178;28;20025;-52
2023/09/23 11:02:22;;;;;;;8.48;2.72;;;;;;;;;;5022447;28;20144;-53
2023/09/23 11:04:48;;;;;;;8.00;2.60;;;;;;;;;;5030435;28;20426;-52
2023/09/23 11:07:15;;;;;;;8.15;2.30;;;;;;;;;;5018941;28;20029;-53
2023/09/23 11:09:45;;;;;;;11.18;2.45;;;;;;;;;;5000010;28;20382;-57
2023/09/23 11:12:18;;;;;;;9.63;2.30;;;;;;;;;;4998417;28;20056;-48
2023/09/23 11:14:48;;;;;;;6.70;2.38;;;;;;;;;;5020375;28;20030;-50
2023/09/23 11:17:30;;;;;;;9.20;2.50;;;;;;;;;;5003447;28;20402;-48
2023/09/23 11:19:57;;;;;;;6.50;2.58;;;;;;;;;;5001811;28;20035;-46
2023/09/23 11:22:26;;;;;;;7.22;2.40;;;;;;;;;;5003086;28;20049;-47
2023/09/23 11:24:53;;;;;;;10.25;2.47;;;;;;;;;;5001974;28;20041;-46
2023/09/23 11:27:20;;;;;;;9.40;2.40;;;;;;;;;;5021158;28;20116;-48
2023/09/23 11:29:46;;;;;;;10.32;2.08;;;;;;;;;;5016358;28;20397;-46
2023/09/23 11:32:12;;;;;;;6.63;2.03;;;;;;;;;;4997171;28;20044;-47
2023/09/23 11:34:38;;;;;;;9.93;2.65;;;;;;;;;;5029369;28;20022;-48
2023/09/23 11:37:04;;;;;;;8.48;2.13;;;;;;;;;;5021994;28;20761;-47
2023/09/23 11:39:37;;;;;;;10.85;2.30;;;;;;;;;;5019448;28;20045;-46
2023/09/23 11:42:03;;;;;;;7.95;2.55;;;;;;;;;;5015530;28;20128;-48
2023/09/23 11:44:29;;;;;;;5.60;2.40;;;;;;;;;;5020251;28;20037;-48
2023/09/23 11:46:55;;;;;;;6.80;2.53;;;;;;;;;;5021064;28;20033;-48
2023/09/23 11:49:21;;;;;;;11.25;2.05;;;;;;;;;;5024964;28;20041;-50
2023/09/23 11:51:47;;;;;;;8.32;2.30;;;;;;;;;;5016970;28;20083;-52
2023/09/23 11:54:14;;;;;;;9.88;1.90;;;;;;;;;;5026174;28;20128;-48
2023/09/23 11:56:40;;;;;;;5.80;1.80;;;;;;;;;;5032582;28;20033;-47
2023/09/23 11:59:06;;;;;;;6.03;1.77;;;;;;;;;;5030332;28;20588;-49
2023/09/23 12:01:32;;;;;;;7.78;2.30;;;;;;;;;;5023870;28;20025;-50
2023/09/23 12:03:58;;;;;;;9.48;2.17;;;;;;;;;;5016684;28;20468;-48
2023/09/23 12:06:29;;;;;;;6.70;2.22;;;;;;;;;;5022958;28;20046;-49
2023/09/23 12:08:55;;;;;;;6.93;2.17;;;;;;;;;;5025432;28;20116;-45
2023/09/23 12:11:21;;;;;;;10.18;2.25;;;;;;;;;;5024615;28;20041;-46
2023/09/23 12:13:52;;;;;;;8.82;1.90;;;;;;;;;;5023473;28;20052;-47
2023/09/23 12:16:18;;;;;;;5.03;1.70;;;;;;;;;;5040094;28;20065;-46
2023/09/23 12:18:47;;;;;;;7.13;1.95;;;;;;;;;;5025545;28;20077;-47
2023/09/23 12:21:14;;;;;;;10.63;4.00;;;;;;;;;;5021985;28;20029;-49
2023/09/23 12:23:41;;;;;;;6.82;2.10;;;;;;;;;;5024390;28;20033;-53
2023/09/23 12:26:09;;;;;;;8.93;1.90;;;;;;;;;;5023088;28;20476;-52
2023/09/23 12:28:36;;;;;;;8.90;2.10;;;;;;;;;;5018283;28;20050;-52
2023/09/23 12:31:02;;;;;;;7.28;2.00;;;;;;;;;;5017311;28;20041;-53
2023/09/23 12:33:28;;;;;;;7.53;2.20;;;;;;;;;;5029067;28;20414;-55
2023/09/23 12:35:57;;;;;;;8.45;2.55;;;;;;;;;;5030651;28;20071;-54
2023/09/23 12:38:23;;;;;;;7.40;2.30;;;;;;;;;;5028162;28;20393;-55
2023/09/23 12:40:49;;;;;;;6.57;1.85;;;;;;;;;;5031184;28;20067;-55
2023/09/23 12:43:15;;;;;;;8.35;1.85;;;;;;;;;;5022849;28;20073;-52
2023/09/23 12:45:43;;;;;;;13.85;2.30;;;;;;;;;;5029173;28;20041;-50
2023/09/23 12:48:09;;;;;;;7.45;2.28;;;;;;;;;;5020070;28;20159;-52
2023/09/23 12:50:35;;;;;;;6.80;2.13;;;;;;;;;;5007374;28;20058;-50
2023/09/23 12:53:02;;;;;;;11.75;2.97;;;;;;;;;;5004023;28;20469;-49
2023/09/23 12:55:28;;;;;;;6.53;2.42;;;;;;;;;;5004625;28;20384;-48
2023/09/23 12:57:55;;;;;;;11.48;2.50;;;;;;;;;;5001132;28;20450;-46
2023/09/23 13:00:21;;;;;;;10.48;2.65;;;;;;;;;;5001011;28;20033;-45
2023/09/23 13:02:47;;;;;;;6.55;2.10;;;;;;;;;;4998012;28;20022;-45
2023/09/23 13:05:16;;;;;;;7.93;2.15;;;;;;;;;;4996704;28;20802;-47
2023/09/23 13:07:45;;;;;;;8.40;2.33;;;;;;;;;;4995507;28;20038;-44
2023/09/23 13:10:14;;;;;;;7.10;2.38;;;;;;;;;;5008129;28;20444;-45
2023/09/23 13:12:40;;;;;;;7.28;2.33;;;;;;;;;;5023358;28;20077;-45
2023/09/23 13:15:07;;;;;;;7.47;2.10;;;;;;;;;;5022479;28;20037;-48
2023/09/23 13:17:33;;;;;;;6.80;2.13;;;;;;;;;;5019231;28;20644;-46
2023/09/23 13:19:59;;;;;;;6.93;2.15;;;;;;;;;;5001750;28;20058;-45
2023/09/23 13:22:25;;;;;;;8.55;2.13;;;;;;;;;;4998424;28;21692;-49
2023/09/23 13:24:52;;;;;;;11.10;2.00;;;;;;;;;;4993757;28;20026;-45
2023/09/23 13:27:18;;;;;;;9.18;2.25;;;;;;;;;;5007537;28;20046;-50
2023/09/23 13:29:44;;;;;;;7.68;2.17;;;;;;;;;;5011709;28;20038;-47
2023/09/23 13:32:10;;;;;;;7.10;1.80;;;;;;;;;;5015618;28;20060;-47
2023/09/23 13:34:36;;;;;;;8.65;2.60;;;;;;;;;;5021785;28;20104;-51
2023/09/23 13:37:02;;;;;;;4.97;1.88;;;;;;;;;;5017396;28;20042;-49
2023/09/23 13:39:28;;;;;;;5.32;2.10;;;;;;;;;;5023891;28;20159;-47
2023/09/23 13:41:55;;;;;;;4.45;1.60;;;;;;;;;;5029990;28;20116;-50
2023/09/23 13:44:24;;;;;;;7.10;2.20;;;;;;;;;;5021752;28;20041;-47
2023/09/23 13:46:51;;;;;;;5.65;1.80;;;;;;;;;;5004046;28;20145;-45
2023/09/23 13:49:16;;;;;;;7.22;2.00;;;;;;;;;;5015073;28;20037;-44
2023/09/23 13:51:42;;;;;;;5.03;1.80;;;;;;;;;;5013844;28;20056;-50
2023/09/23 13:54:09;;;;;;;7.75;1.95;;;;;;;;;;5020690;28;20036;-50
2023/09/23 13:56:35;;;;;;;5.95;2.00;;;;;;;;;;5000124;28;20029;-51
2023/09/23 13:59:01;;;;;;;9.23;2.00;;;;;;;;;;5000463;28;20512;-50
2023/09/23 14:01:29;;;;;;;5.72;1.80;;;;;;;;;;5006809;28;21561;-53
2023/09/23 14:03:54;;;;;;;8.82;1.80;;;;;;;;;;5009508;28;20045;-54
2023/09/23 14:06:20;;;;;;;8.25;1.75;;;;;;;;;;5006604;28;20073;-47
2023/09/23 14:08:47;;;;;;;4.20;1.50;;;;;;;;;;5025193;28;20120;-52
2023/09/23 14:11:13;;;;;;;4.93;1.67;;;;;;;;;;5026284;28;20101;-54
2023/09/23 14:13:40;;;;;;;9.57;1.73;;;;;;;;;;5026526;28;20048;-53
2023/09/23 14:16:06;;;;;;;5.93;1.70;;;;;;;;;;5018219;28;20037;-54
2023/09/23 14:18:32;;;;;;;7.75;1.40;;;;;;;;;;5011773;28;20037;-51
2023/09/23 14:20:58;;;;;;;9.32;1.67;;;;;;;;;;5022286;28;20035;-53
2023/09/23 14:23:24;;;;;;;6.72;1.70;;;;;;;;;;5027757;28;20030;-52
2023/09/23 14:25:50;;;;;;;6.47;2.05;;;;;;;;;;5018434;28;20038;-53
2023/09/23 14:28:16;;;;;;;3.22;1.55;;;;;;;;;;5021013;28;20022;-55
2023/09/23 14:30:43;;;;;;;5.82;1.90;;;;;;;;;;5022997;28;20124;-54
2023/09/23 14:33:09;;;;;;;5.30;1.55;;;;;;;;;;5021070;28;20459;-54